createdAt,value
2023-03-16T00:02:06.421Z,7.75
2023-03-16T00:04:37.684Z,6.45
2023-03-16T00:07:05.977Z,6.20
2023-03-16T00:09:32.659Z,8.32
2023-03-16T00:12:03.320Z,12.70
2023-03-16T00:14:30.960Z,5.90
2023-03-16T00:16:57.969Z,9.43
2023-03-16T00:19:24.900Z,10.00
2023-03-16T00:21:51.985Z,7.75
2023-03-16T00:24:20.221Z,6.10
2023-03-16T00:26:47.793Z,9.13
2023-03-16T00:29:14.683Z,8.48
2023-03-16T00:31:44.720Z,10.38
2023-03-16T00:34:12.275Z,8.98
2023-03-16T00:36:39.371Z,6.95
2023-03-16T00:39:07.098Z,7.72
2023-03-16T00:41:38.209Z,10.00
2023-03-16T00:44:05.797Z,8.00
2023-03-16T00:46:32.889Z,17.17
2023-03-16T00:48:59.656Z,19.70
2023-03-16T00:51:26.315Z,15.23
2023-03-16T00:53:53.001Z,14.88
2023-03-16T00:56:19.740Z,20.48
2023-03-16T00:58:46.351Z,21.25
2023-03-16T01:01:16.416Z,17.88
2023-03-16T01:03:43.258Z,14.20
2023-03-16T01:06:17.392Z,15.43
2023-03-16T01:08:44.526Z,14.05
2023-03-16T01:11:17.513Z,15.65
2023-03-16T01:13:45.054Z,16.48
2023-03-16T01:16:11.722Z,11.98
2023-03-16T01:18:38.595Z,9.43
2023-03-16T01:21:06.944Z,11.85
2023-03-16T01:23:34.067Z,12.75
2023-03-16T01:26:02.547Z,7.55
2023-03-16T01:28:31.953Z,11.27
2023-03-16T01:31:05.608Z,17.10
2023-03-16T01:33:33.893Z,10.48
2023-03-16T01:36:04.481Z,10.00
2023-03-16T01:38:31.350Z,9.05
2023-03-16T01:40:58.459Z,9.43
2023-03-16T01:43:27.592Z,6.65
2023-03-16T01:46:27.834Z,9.45
2023-03-16T01:49:27.615Z,9.80
2023-03-16T01:51:58.382Z,13.00
2023-03-16T01:54:53.163Z,9.43
2023-03-16T01:57:22.293Z,8.95
2023-03-16T01:59:55.764Z,6.57
2023-03-16T02:02:24.798Z,11.98
2023-03-16T02:04:56.877Z,7.85
2023-03-16T02:07:26.295Z,9.95
2023-03-16T02:09:56.225Z,7.72
2023-03-16T02:12:22.986Z,7.70
2023-03-16T02:14:50.520Z,6.45
2023-03-16T02:17:19.993Z,11.93
2023-03-16T02:20:01.655Z,9.30
2023-03-16T02:22:28.651Z,14.48
2023-03-16T02:24:55.407Z,9.80
2023-03-16T02:27:40.324Z,8.55
2023-03-16T02:30:13.670Z,9.02
2023-03-16T02:32:41.047Z,10.10
2023-03-16T02:35:09.456Z,10.07
2023-03-16T02:37:36.345Z,9.32
2023-03-16T02:40:18.658Z,13.02
2023-03-16T02:42:45.257Z,14.63
2023-03-16T02:45:12.726Z,13.18
2023-03-16T02:47:42.366Z,14.48
2023-03-16T02:50:11.168Z,9.55
2023-03-16T02:52:38.482Z,9.50
2023-03-16T02:55:06.975Z,23.15
2023-03-16T02:57:33.897Z,17.80
2023-03-16T03:00:01.530Z,22.83
2023-03-16T03:02:28.266Z,20.27
2023-03-16T03:04:54.880Z,19.95
2023-03-16T03:07:21.979Z,15.05
2023-03-16T03:09:48.632Z,14.13
2023-03-16T03:12:15.302Z,14.48
2023-03-16T03:14:42.227Z,16.45
2023-03-16T03:17:10.463Z,14.05
2023-03-16T03:19:37.412Z,14.18
2023-03-16T03:22:06.573Z,15.45
2023-03-16T03:24:34.217Z,14.60
2023-03-16T03:27:01.372Z,13.60
2023-03-16T03:29:34.773Z,15.82
2023-03-16T03:32:02.250Z,15.23
2023-03-16T03:34:29.508Z,14.80
2023-03-16T03:36:56.389Z,13.88
2023-03-16T03:39:22.984Z,11.48
2023-03-16T03:41:49.589Z,9.65
2023-03-16T03:44:16.358Z,11.77
2023-03-16T03:46:43.033Z,11.00
2023-03-16T03:49:09.850Z,11.75
2023-03-16T03:51:36.627Z,8.35
2023-03-16T03:54:03.503Z,11.82
2023-03-16T03:56:30.355Z,9.30
2023-03-16T03:58:57.762Z,10.13
2023-03-16T04:01:25.161Z,12.38
2023-03-16T04:03:51.952Z,10.18
2023-03-16T04:06:18.589Z,7.63
2023-03-16T04:08:45.282Z,7.47
2023-03-16T04:11:12.160Z,8.48
2023-03-16T04:13:38.721Z,6.13
2023-03-16T04:16:05.911Z,9.13
2023-03-16T04:18:38.852Z,7.35
2023-03-16T04:21:06.704Z,6.72
2023-03-16T04:23:34.370Z,7.20
2023-03-16T04:26:01.844Z,8.45
2023-03-16T04:28:28.527Z,7.93
2023-03-16T04:30:55.381Z,10.10
2023-03-16T04:33:22.638Z,6.85
2023-03-16T04:35:49.985Z,7.22
2023-03-16T04:38:16.732Z,7.57
2023-03-16T04:40:43.538Z,7.65
2023-03-16T04:43:10.236Z,8.32
2023-03-16T04:45:36.880Z,8.15
2023-03-16T04:48:03.937Z,8.02
2023-03-16T04:50:31.880Z,7.28
2023-03-16T04:52:58.608Z,9.30
2023-03-16T04:55:25.235Z,7.13
2023-03-16T04:57:52.708Z,9.60
2023-03-16T05:00:20.744Z,8.77
2023-03-16T05:02:48.224Z,8.25
2023-03-16T05:05:15.481Z,6.88
2023-03-16T05:07:46.295Z,6.70
2023-03-16T05:10:15.486Z,9.13
2023-03-16T05:12:42.235Z,9.68
2023-03-16T05:15:09.673Z,7.63
2023-03-16T05:17:36.243Z,11.52
2023-03-16T05:20:08.470Z,7.25
2023-03-16T05:22:38.039Z,6.97
2023-03-16T05:25:05.767Z,7.97
2023-03-16T05:27:32.341Z,7.10
2023-03-16T05:29:58.999Z,8.20
2023-03-16T05:32:25.704Z,7.57
2023-03-16T05:34:53.394Z,8.32
2023-03-16T05:37:20.104Z,6.00
2023-03-16T05:39:46.771Z,7.07
2023-03-16T05:42:13.868Z,8.25
2023-03-16T05:44:40.648Z,8.43
2023-03-16T05:47:07.353Z,5.60
2023-03-16T05:49:33.947Z,11.30
2023-03-16T05:52:00.567Z,9.25
2023-03-16T05:54:27.207Z,8.43
2023-03-16T05:56:54.789Z,8.90
2023-03-16T05:59:21.427Z,9.18
2023-03-16T06:01:49.812Z,7.38
2023-03-16T06:04:16.566Z,7.28
2023-03-16T06:06:43.809Z,5.95
2023-03-16T06:09:10.627Z,9.25
2023-03-16T06:11:37.329Z,22.85
2023-03-16T06:14:04.414Z,20.80
2023-03-16T06:16:31.144Z,16.25
2023-03-16T06:18:59.784Z,19.13
2023-03-16T06:21:26.654Z,62.08
2023-03-16T06:23:53.830Z,41.85
2023-03-16T06:26:20.493Z,39.60
2023-03-16T06:28:48.716Z,31.35
2023-03-16T06:31:15.570Z,29.38
2023-03-16T06:33:42.632Z,22.35
2023-03-16T06:36:09.441Z,21.70
2023-03-16T06:38:36.249Z,23.95
2023-03-16T06:41:03.005Z,25.98
2023-03-16T06:43:30.024Z,26.23
2023-03-16T06:45:57.593Z,23.98
2023-03-16T06:48:24.564Z,22.13
2023-03-16T06:50:52.290Z,28.75
2023-03-16T06:53:18.934Z,32.65
2023-03-16T06:55:46.398Z,29.05
2023-03-16T06:58:14.362Z,24.50
2023-03-16T07:00:41.030Z,20.58
2023-03-16T07:03:07.756Z,17.52
2023-03-16T07:05:34.520Z,16.33
2023-03-16T07:08:01.457Z,16.50
2023-03-16T07:10:28.550Z,15.40
2023-03-16T07:12:55.523Z,17.50
2023-03-16T07:15:22.264Z,21.17
2023-03-16T07:17:49.249Z,16.33
2023-03-16T07:20:16.239Z,19.10
2023-03-16T07:22:42.887Z,20.85
2023-03-16T07:25:11.580Z,15.07
2023-03-16T07:27:39.153Z,13.50
2023-03-16T07:30:06.749Z,14.43
2023-03-16T07:32:33.781Z,13.43
2023-03-16T07:35:00.573Z,13.85
2023-03-16T07:37:27.392Z,12.45
2023-03-16T07:39:54.608Z,6.53
2023-03-16T07:42:23.002Z,10.45
2023-03-16T07:44:51.868Z,9.10
2023-03-16T07:47:18.866Z,9.00
2023-03-16T07:49:45.533Z,7.95
2023-03-16T07:52:15.154Z,10.35
2023-03-16T07:54:42.010Z,8.73
2023-03-16T07:57:09.027Z,9.40
2023-03-16T07:59:35.701Z,7.50
2023-03-16T08:02:02.318Z,6.82
2023-03-16T08:04:28.991Z,6.80
2023-03-16T08:07:00.489Z,9.40
2023-03-16T08:09:27.774Z,7.38
2023-03-16T08:11:54.469Z,5.32
2023-03-16T08:14:21.169Z,6.40
2023-03-16T08:16:47.808Z,6.78
2023-03-16T08:19:14.735Z,5.93
2023-03-16T08:21:58.276Z,5.65
2023-03-16T08:24:29.784Z,11.88
2023-03-16T08:26:57.718Z,7.43
2023-03-16T08:29:25.254Z,6.32
2023-03-16T08:31:56.777Z,7.55
2023-03-16T08:34:24.255Z,6.75
2023-03-16T08:36:50.922Z,5.70
2023-03-16T08:39:17.522Z,7.60
2023-03-16T08:41:46.136Z,8.23
2023-03-16T08:44:13.320Z,5.25
2023-03-16T08:46:40.952Z,6.70
2023-03-16T08:49:07.648Z,6.38
2023-03-16T08:51:34.874Z,6.88
2023-03-16T08:54:01.544Z,4.82
2023-03-16T08:56:30.842Z,5.80
2023-03-16T08:58:57.707Z,5.32
2023-03-16T09:01:25.896Z,6.40
2023-03-16T09:03:53.339Z,7.30
2023-03-16T09:06:20.132Z,6.35
2023-03-16T09:08:47.962Z,7.25
2023-03-16T09:11:19.315Z,7.65
2023-03-16T09:13:46.461Z,8.23
2023-03-16T09:16:15.412Z,9.68
2023-03-16T09:18:43.653Z,8.30
2023-03-16T09:21:14.064Z,8.40
2023-03-16T09:23:42.924Z,7.90
2023-03-16T09:26:10.466Z,6.35
2023-03-16T09:28:39.217Z,7.60
2023-03-16T09:31:07.255Z,10.77
2023-03-16T09:33:35.592Z,8.48
2023-03-16T09:36:03.297Z,8.48
2023-03-16T09:38:30.660Z,7.82
2023-03-16T09:41:00.996Z,7.15
2023-03-16T09:43:27.857Z,7.03
2023-03-16T09:46:02.996Z,11.43
2023-03-16T09:48:31.120Z,9.35
2023-03-16T09:51:00.186Z,7.22
2023-03-16T09:53:32.706Z,6.88
2023-03-16T09:56:03.746Z,6.30
2023-03-16T09:58:32.476Z,6.22
2023-03-16T10:01:23.553Z,7.38
2023-03-16T10:04:41.089Z,8.32
2023-03-16T10:07:38.428Z,9.20
2023-03-16T10:10:31.442Z,7.57
2023-03-16T10:13:00.143Z,6.00
2023-03-16T10:15:30.154Z,7.70
2023-03-16T10:18:13.694Z,6.32
2023-03-16T10:20:42.145Z,6.00
2023-03-16T10:23:18.811Z,5.25
2023-03-16T10:25:51.906Z,4.65
2023-03-16T10:28:25.057Z,6.28
2023-03-16T10:30:54.826Z,5.15
2023-03-16T10:33:27.423Z,5.70
2023-03-16T10:36:19.548Z,6.90
2023-03-16T10:39:08.090Z,5.15
2023-03-16T10:41:46.040Z,7.47
2023-03-16T10:44:16.958Z,6.30
2023-03-16T10:46:58.151Z,5.35
2023-03-16T10:49:36.289Z,5.32
2023-03-16T10:52:11.809Z,3.80
2023-03-16T10:54:40.952Z,5.55
2023-03-16T10:57:27.177Z,5.28
2023-03-16T10:59:57.826Z,5.43
2023-03-16T11:02:32.020Z,5.55
2023-03-16T11:07:25.800Z,3.38
2023-03-16T11:09:53.870Z,5.57
2023-03-16T11:12:31.203Z,3.00
2023-03-16T11:15:09.382Z,3.42
2023-03-16T11:17:44.957Z,3.58
2023-03-16T11:20:22.440Z,4.57
2023-03-16T11:22:49.434Z,3.70
2023-03-16T11:25:31.540Z,5.07
2023-03-16T11:28:12.208Z,3.75
2023-03-16T11:31:25.342Z,3.17
2023-03-16T11:33:52.475Z,3.75
2023-03-16T11:36:40.559Z,5.07
2023-03-16T11:39:40.694Z,3.95
2023-03-16T11:42:27.866Z,7.03
2023-03-16T11:44:59.710Z,4.80
2023-03-16T11:48:08.458Z,4.88
2023-03-16T11:50:48.367Z,2.85
2023-03-16T11:53:47.998Z,2.80
2023-03-16T11:56:42.741Z,3.17
2023-03-16T11:59:30.550Z,4.00
2023-03-16T12:02:21.694Z,3.47
2023-03-16T12:04:57.526Z,5.43
2023-03-16T12:07:53.481Z,3.63
2023-03-16T12:10:43.880Z,2.67
2023-03-16T12:13:31.249Z,3.78
2023-03-16T12:16:06.813Z,2.75
2023-03-16T12:18:40.170Z,3.05
2023-03-16T12:21:13.375Z,3.60
2023-03-16T12:23:44.351Z,3.92
2023-03-16T12:26:12.697Z,3.35
2023-03-16T12:28:41.330Z,4.18
2023-03-16T12:31:20.358Z,2.28
2023-03-16T12:33:58.948Z,3.40
2023-03-16T12:36:41.924Z,3.58
2023-03-16T12:39:45.883Z,3.10
2023-03-16T12:42:37.018Z,3.75
2023-03-16T12:45:11.568Z,3.15
2023-03-16T12:48:11.516Z,2.70
2023-03-16T12:50:49.382Z,3.35
2023-03-16T12:53:49.009Z,3.22
2023-03-16T12:56:19.098Z,5.88
2023-03-16T12:58:50.825Z,3.25
2023-03-16T13:01:29.683Z,5.18
2023-03-16T13:04:15.207Z,5.70
2023-03-16T13:07:07.833Z,3.38
2023-03-16T13:09:37.279Z,3.75
2023-03-16T13:12:07.390Z,4.88
2023-03-16T13:14:42.485Z,3.25
2023-03-16T13:17:23.831Z,4.38
2023-03-16T13:20:31.187Z,2.35
2023-03-16T13:23:29.944Z,4.55
2023-03-16T13:26:50.808Z,3.20
2023-03-16T13:29:33.754Z,5.32
2023-03-16T13:32:03.979Z,2.22
2023-03-16T13:34:32.967Z,3.55
2023-03-16T13:37:01.720Z,4.15
2023-03-16T13:39:30.407Z,6.18
2023-03-16T13:42:24.592Z,3.45
2023-03-16T13:44:57.005Z,5.77
2023-03-16T13:47:26.725Z,5.07
2023-03-16T13:49:58.611Z,4.05
2023-03-16T13:52:29.496Z,3.40
2023-03-16T13:54:57.715Z,2.75
2023-03-16T13:57:32.515Z,3.15
2023-03-16T14:00:16.041Z,3.47
2023-03-16T14:02:43.950Z,3.85
2023-03-16T14:05:17.380Z,3.47
2023-03-16T14:07:47.432Z,4.88
2023-03-16T14:10:17.389Z,2.58
2023-03-16T14:12:51.913Z,3.42
2023-03-16T14:15:19.076Z,5.28
2023-03-16T14:17:45.897Z,2.33
2023-03-16T14:20:22.895Z,3.65
2023-03-16T14:22:53.599Z,2.88
2023-03-16T14:25:25.684Z,2.60
2023-03-16T14:28:06.402Z,2.72
2023-03-16T14:30:33.186Z,2.72
2023-03-16T14:33:06.162Z,3.42
2023-03-16T14:35:43.982Z,3.00
2023-03-16T14:38:22.840Z,2.15
2023-03-16T14:40:55.179Z,4.10
2023-03-16T14:43:36.818Z,2.63
2023-03-16T14:46:05.682Z,3.30
2023-03-16T14:48:33.120Z,1.70
2023-03-16T14:51:02.346Z,3.38
2023-03-16T14:53:29.709Z,3.10
2023-03-16T14:55:56.946Z,1.92
2023-03-16T14:58:24.090Z,2.45
2023-03-16T15:00:53.542Z,1.83
2023-03-16T15:03:22.961Z,3.10
2023-03-16T15:05:51.249Z,2.78
2023-03-16T15:08:26.816Z,1.58
2023-03-16T15:10:54.637Z,2.10
2023-03-16T15:13:41.243Z,1.65
2023-03-16T15:16:11.724Z,3.38
2023-03-16T15:18:42.049Z,2.42
2023-03-16T15:21:18.506Z,3.00
2023-03-16T15:23:45.508Z,3.53
2023-03-16T15:26:14.103Z,2.72
2023-03-16T15:28:41.155Z,1.83
2023-03-16T15:31:08.107Z,1.75
2023-03-16T15:33:34.837Z,2.75
2023-03-16T15:36:03.637Z,2.38
2023-03-16T15:38:32.675Z,1.77
2023-03-16T15:40:59.802Z,1.83
2023-03-16T15:43:29.117Z,1.67
2023-03-16T15:45:57.680Z,2.78
2023-03-16T15:48:26.568Z,2.85
2023-03-16T15:51:01.333Z,2.08
2023-03-16T15:53:32.622Z,2.65
2023-03-16T15:56:03.289Z,2.97
2023-03-16T15:58:30.985Z,3.03
2023-03-16T16:01:00.004Z,2.03
2023-03-16T16:03:27.562Z,2.97
2023-03-16T16:05:54.586Z,4.05
2023-03-16T16:08:21.766Z,2.08
2023-03-16T16:10:49.812Z,3.20
2023-03-16T16:13:21.468Z,1.92
2023-03-16T16:15:49.121Z,3.13
2023-03-16T16:18:30.773Z,2.85
2023-03-16T16:20:58.860Z,2.60
2023-03-16T16:23:26.273Z,2.85
2023-03-16T16:25:58.782Z,2.33
2023-03-16T16:28:29.512Z,3.33
2023-03-16T16:30:56.750Z,3.40
2023-03-16T16:33:31.818Z,44.17
2023-03-16T16:36:00.833Z,68.38
2023-03-16T16:38:28.236Z,150.98
2023-03-16T16:40:58.247Z,17.25
2023-03-16T16:43:32.964Z,54.78
2023-03-16T16:46:01.322Z,14.13
2023-03-16T16:48:37.233Z,4.60
2023-03-16T16:51:07.426Z,5.28
2023-03-16T16:53:34.485Z,6.55
2023-03-16T16:56:02.177Z,5.20
2023-03-16T16:58:28.995Z,3.72
2023-03-16T17:00:57.148Z,3.70
2023-03-16T17:03:28.655Z,3.22
2023-03-16T17:05:58.370Z,3.55
2023-03-16T17:08:26.420Z,5.45
2023-03-16T17:10:54.103Z,4.40
2023-03-16T17:13:27.527Z,4.78
2023-03-16T17:15:55.295Z,3.27
2023-03-16T17:18:22.580Z,4.80
2023-03-16T17:20:50.844Z,4.57
2023-03-16T17:23:33.465Z,4.18
2023-03-16T17:26:28.839Z,3.38
2023-03-16T17:29:06.379Z,6.82
2023-03-16T17:31:36.713Z,3.13
2023-03-16T17:34:19.028Z,4.35
2023-03-16T17:36:47.002Z,2.22
2023-03-16T17:39:38.638Z,3.25
2023-03-16T17:42:07.452Z,3.15
2023-03-16T17:44:38.957Z,6.03
2023-03-16T17:47:36.552Z,5.13
2023-03-16T17:50:22.590Z,8.73
2023-03-16T17:52:49.793Z,5.32
2023-03-16T17:55:20.581Z,5.72
2023-03-16T17:57:49.909Z,6.88
2023-03-16T18:00:36.144Z,8.73
2023-03-16T18:03:14.408Z,9.27
2023-03-16T18:05:41.410Z,10.27
2023-03-16T18:08:15.423Z,13.93
2023-03-16T18:10:42.292Z,12.73
2023-03-16T18:13:18.329Z,15.15
2023-03-16T18:15:47.204Z,13.40
2023-03-16T18:18:21.621Z,14.32
2023-03-16T18:23:23.110Z,12.77
2023-03-16T18:25:53.100Z,11.43
2023-03-16T18:28:20.787Z,13.57
2023-03-16T18:30:52.660Z,13.23
2023-03-16T18:33:27.809Z,9.65
2023-03-16T18:36:01.310Z,10.52
2023-03-16T18:38:36.404Z,6.68
2023-03-16T18:41:21.069Z,8.07
2023-03-16T18:43:48.220Z,6.60
2023-03-16T18:46:28.342Z,8.18
2023-03-16T18:48:57.380Z,6.72
2023-03-16T18:51:24.246Z,4.70
2023-03-16T18:53:51.042Z,3.95
2023-03-16T18:56:21.741Z,5.63
2023-03-16T18:58:50.151Z,3.65
2023-03-16T19:01:30.899Z,3.22
2023-03-16T19:03:59.241Z,5.97
2023-03-16T19:06:32.702Z,5.47
2023-03-16T19:09:29.549Z,7.00
2023-03-16T19:11:57.239Z,8.35
2023-03-16T19:14:33.131Z,6.00
2023-03-16T19:17:01.408Z,8.00
2023-03-16T19:19:28.968Z,5.45
2023-03-16T19:21:58.380Z,5.15
2023-03-16T19:24:31.420Z,6.82
2023-03-16T19:26:58.317Z,5.20
2023-03-16T19:29:34.171Z,4.60
2023-03-16T19:32:01.662Z,4.65
2023-03-16T19:34:29.237Z,5.43
2023-03-16T19:36:55.978Z,4.30
2023-03-16T19:39:22.953Z,4.38
2023-03-16T19:41:55.327Z,4.10
2023-03-16T19:44:25.486Z,3.35
2023-03-16T19:46:52.616Z,3.90
2023-03-16T19:49:22.122Z,5.43
2023-03-16T19:51:53.793Z,2.53
2023-03-16T19:54:26.436Z,4.00
2023-03-16T19:56:56.103Z,2.83
2023-03-16T19:59:24.883Z,3.15
2023-03-16T20:01:51.755Z,9.93
2023-03-16T20:04:21.951Z,4.88
2023-03-16T20:06:50.018Z,2.75
2023-03-16T20:09:17.666Z,3.78
2023-03-16T20:11:44.703Z,2.58
2023-03-16T20:14:19.387Z,2.80
2023-03-16T20:16:50.330Z,3.58
2023-03-16T20:19:17.052Z,4.25
2023-03-16T20:21:43.985Z,2.40
2023-03-16T20:24:19.835Z,4.20
2023-03-16T20:26:48.480Z,2.92
2023-03-16T20:29:27.723Z,2.85
2023-03-16T20:31:54.434Z,2.85
2023-03-16T20:34:25.207Z,2.60
2023-03-16T20:36:51.987Z,2.00
2023-03-16T20:39:18.709Z,5.60
2023-03-16T20:41:45.743Z,2.70
2023-03-16T20:44:19.018Z,2.38
2023-03-16T20:46:47.305Z,4.23
2023-03-16T20:49:30.141Z,2.35
2023-03-16T20:51:56.990Z,2.88
2023-03-16T20:54:24.926Z,4.30
2023-03-16T20:56:54.062Z,3.70
2023-03-16T20:59:25.170Z,3.58
2023-03-16T21:01:54.761Z,2.80
2023-03-16T21:04:28.420Z,5.22
2023-03-16T21:06:56.245Z,6.65
2023-03-16T21:09:27.093Z,2.83
2023-03-16T21:11:56.907Z,3.67
2023-03-16T21:14:24.597Z,4.78
2023-03-16T21:16:52.612Z,4.43
2023-03-16T21:19:21.840Z,3.33
2023-03-16T21:21:48.982Z,3.50
2023-03-16T21:24:16.407Z,3.80
2023-03-16T21:26:44.242Z,5.00
2023-03-16T21:29:21.734Z,4.82
2023-03-16T21:31:49.060Z,3.55
2023-03-16T21:34:24.272Z,5.40
2023-03-16T21:36:51.147Z,6.30
2023-03-16T21:39:19.779Z,7.28
2023-03-16T21:41:47.940Z,6.70
2023-03-16T21:44:14.546Z,6.57
2023-03-16T21:46:41.337Z,5.45
2023-03-16T21:49:11.167Z,7.32
2023-03-16T21:51:37.861Z,3.75
2023-03-16T21:54:08.013Z,4.85
2023-03-16T21:56:36.214Z,5.32
2023-03-16T21:59:02.968Z,5.05
2023-03-16T22:01:31.840Z,4.75
2023-03-16T22:04:04.429Z,6.45
2023-03-16T22:06:32.133Z,4.97
2023-03-16T22:08:59.873Z,5.97
2023-03-16T22:11:28.601Z,4.70
2023-03-16T22:13:56.351Z,4.45
2023-03-16T22:16:26.154Z,5.72
2023-03-16T22:18:57.244Z,4.22
2023-03-16T22:21:29.164Z,4.20
2023-03-16T22:23:56.878Z,4.75
2023-03-16T22:26:23.844Z,5.80
2023-03-16T22:28:51.039Z,4.43
2023-03-16T22:31:38.967Z,4.88
2023-03-16T22:34:06.624Z,5.07
2023-03-16T22:36:33.896Z,4.35
2023-03-16T22:39:08.334Z,6.10
2023-03-16T22:41:35.270Z,5.13
2023-03-16T22:44:02.043Z,3.53
2023-03-16T22:46:29.352Z,4.53
2023-03-16T22:48:56.488Z,5.65
2023-03-16T22:51:30.464Z,6.15
2023-03-16T22:54:08.727Z,5.75
2023-03-16T22:56:35.848Z,3.95
2023-03-16T22:59:06.387Z,3.22
2023-03-16T23:01:44.011Z,4.07
2023-03-16T23:04:15.789Z,4.43
2023-03-16T23:06:42.851Z,4.53
2023-03-16T23:09:13.949Z,5.50
2023-03-16T23:11:43.545Z,5.30
2023-03-16T23:14:18.943Z,4.32
2023-03-16T23:16:46.945Z,5.63
2023-03-16T23:19:36.810Z,5.65
2023-03-16T23:22:05.890Z,5.18
2023-03-16T23:24:33.515Z,5.03
2023-03-16T23:27:00.911Z,4.63
2023-03-16T23:29:28.239Z,4.57
2023-03-16T23:31:54.964Z,4.25
2023-03-16T23:34:23.463Z,4.97
2023-03-16T23:36:51.124Z,6.70
2023-03-16T23:39:18.033Z,4.35
2023-03-16T23:41:48.869Z,5.68
2023-03-16T23:44:17.918Z,7.57
2023-03-16T23:46:44.876Z,4.80
2023-03-16T23:49:18.642Z,5.20
2023-03-16T23:51:46.330Z,4.97
2023-03-16T23:54:24.976Z,4.85
2023-03-16T23:56:52.154Z,4.88
2023-03-16T23:59:19.732Z,4.70
